Sligo Airport - TAF
(Terminal Area Forecast)

Issued at 13:51 UTC on Tue. 16-Jul-19

--- METARS(SA) ---

METAR EISG(SLIGO) 161330Z 25008KT 9999 FEW046 SCT055 20/13 Q1017 =

--- TAFS() ---

TAF AMD EISG(SLIGO) 161241Z 1612/1621 29005KT 9999 FEW018 BKN028

BECMG 1613/1615 23008KT =

--- SIGMETS(WS) ---

IE - No VALID SIGMETS/Warnings FOR THIS AREA

--- SIGMETS Volcanic(WV) ---

IE - No VALID SIGMETS/Warnings FOR THIS AREA

--- SIGMETS(WS) ---

UK - No VALID SIGMETS/Warnings FOR THIS AREA

Sligo Airport - METARs

Latest METARs for Sligo and Donegal Airports - updated every 30 mins